sensor_id;sensor_type;location;lat;lon;timestamp;P1;durP1;ratioP1;P2;durP2;ratioP2
51961;SDS011;37986;51.238;17.128;2022-12-18T00:01:05;14.67;;;7.13;;
51961;SDS011;37986;51.238;17.128;2022-12-18T00:03:48;15.53;;;7.23;;
51961;SDS011;37986;51.238;17.128;2022-12-18T00:06:14;15.57;;;10.37;;
51961;SDS011;37986;51.238;17.128;2022-12-18T00:08:41;7.80;;;6.07;;
51961;SDS011;37986;51.238;17.128;2022-12-18T00:11:11;8.93;;;7.10;;
51961;SDS011;37986;51.238;17.128;2022-12-18T00:13:39;6.97;;;5.07;;
51961;SDS011;37986;51.238;17.128;2022-12-18T00:16:07;6.57;;;5.97;;
51961;SDS011;37986;51.238;17.128;2022-12-18T00:18:36;12.73;;;4.10;;
51961;SDS011;37986;51.238;17.128;2022-12-18T00:21:02;7.13;;;3.90;;
51961;SDS011;37986;51.238;17.128;2022-12-18T00:23:33;15.47;;;6.53;;
51961;SDS011;37986;51.238;17.128;2022-12-18T00:26:00;14.90;;;6.43;;
51961;SDS011;37986;51.238;17.128;2022-12-18T00:28:28;11.57;;;5.87;;
51961;SDS011;37986;51.238;17.128;2022-12-18T00:31:04;9.47;;;5.13;;
51961;SDS011;37986;51.238;17.128;2022-12-18T00:33:33;17.43;;;8.83;;
51961;SDS011;37986;51.238;17.128;2022-12-18T00:36:04;8.73;;;7.93;;
51961;SDS011;37986;51.238;17.128;2022-12-18T00:38:42;9.58;;;3.83;;
51961;SDS011;37986;51.238;17.128;2022-12-18T00:41:09;8.37;;;3.67;;
51961;SDS011;37986;51.238;17.128;2022-12-18T00:43:37;5.80;;;4.20;;
51961;SDS011;37986;51.238;17.128;2022-12-18T00:46:03;22.83;;;6.07;;
51961;SDS011;37986;51.238;17.128;2022-12-18T00:48:30;17.07;;;7.83;;
51961;SDS011;37986;51.238;17.128;2022-12-18T00:50:56;12.47;;;6.83;;
51961;SDS011;37986;51.238;17.128;2022-12-18T00:53:22;6.20;;;5.63;;
51961;SDS011;37986;51.238;17.128;2022-12-18T00:55:48;1.57;;;1.50;;
51961;SDS011;37986;51.238;17.128;2022-12-18T00:58:15;9.53;;;6.83;;
51961;SDS011;37986;51.238;17.128;2022-12-18T01:00:42;7.47;;;6.73;;
51961;SDS011;37986;51.238;17.128;2022-12-18T01:03:08;6.70;;;5.20;;
51961;SDS011;37986;51.238;17.128;2022-12-18T01:05:39;20.23;;;9.37;;
51961;SDS011;37986;51.238;17.128;2022-12-18T01:08:06;12.97;;;4.60;;
51961;SDS011;37986;51.238;17.128;2022-12-18T01:10:32;4.97;;;3.40;;
51961;SDS011;37986;51.238;17.128;2022-12-18T01:12:58;17.17;;;8.30;;
51961;SDS011;37986;51.238;17.128;2022-12-18T01:15:23;27.50;;;6.20;;
51961;SDS011;37986;51.238;17.128;2022-12-18T01:17:51;17.80;;;8.57;;
51961;SDS011;37986;51.238;17.128;2022-12-18T01:20:18;32.07;;;6.87;;
51961;SDS011;37986;51.238;17.128;2022-12-18T01:22:44;15.00;;;9.17;;
51961;SDS011;37986;51.238;17.128;2022-12-18T01:25:09;5.03;;;4.17;;
51961;SDS011;37986;51.238;17.128;2022-12-18T01:27:35;18.57;;;4.57;;
51961;SDS011;37986;51.238;17.128;2022-12-18T01:30:01;5.27;;;4.23;;
51961;SDS011;37986;51.238;17.128;2022-12-18T01:32:32;4.83;;;4.13;;
51961;SDS011;37986;51.238;17.128;2022-12-18T01:34:57;9.53;;;6.37;;
51961;SDS011;37986;51.238;17.128;2022-12-18T01:37:23;12.23;;;7.07;;
51961;SDS011;37986;51.238;17.128;2022-12-18T01:39:49;14.23;;;6.40;;
51961;SDS011;37986;51.238;17.128;2022-12-18T01:42:17;14.53;;;6.73;;
51961;SDS011;37986;51.238;17.128;2022-12-18T01:45:26;5.37;;;3.60;;
51961;SDS011;37986;51.238;17.128;2022-12-18T01:52:53;7.30;;;5.92;;
51961;SDS011;37986;51.238;17.128;2022-12-18T01:55:34;20.40;;;6.97;;
51961;SDS011;37986;51.238;17.128;2022-12-18T01:58:14;12.63;;;7.75;;
51961;SDS011;37986;51.238;17.128;2022-12-18T02:03:15;15.70;;;6.20;;
51961;SDS011;37986;51.238;17.128;2022-12-18T02:08:33;16.03;;;7.43;;
51961;SDS011;37986;51.238;17.128;2022-12-18T02:16:46;6.30;;;5.70;;
51961;SDS011;37986;51.238;17.128;2022-12-18T02:22:18;24.73;;;8.03;;
51961;SDS011;37986;51.238;17.128;2022-12-18T02:27:49;14.17;;;6.13;;
51961;SDS011;37986;51.238;17.128;2022-12-18T02:30:16;16.07;;;8.47;;
51961;SDS011;37986;51.238;17.128;2022-12-18T02:32:45;21.93;;;7.80;;
51961;SDS011;37986;51.238;17.128;2022-12-18T02:35:14;5.17;;;4.37;;
51961;SDS011;37986;51.238;17.128;2022-12-18T02:37:44;9.33;;;6.93;;
51961;SDS011;37986;51.238;17.128;2022-12-18T02:40:11;41.10;;;9.77;;
51961;SDS011;37986;51.238;17.128;2022-12-18T02:42:39;9.37;;;5.13;;
51961;SDS011;37986;51.238;17.128;2022-12-18T02:45:05;7.00;;;5.30;;
51961;SDS011;37986;51.238;17.128;2022-12-18T02:47:32;3.57;;;3.17;;
51961;SDS011;37986;51.238;17.128;2022-12-18T02:52:55;10.17;;;4.40;;
51961;SDS011;37986;51.238;17.128;2022-12-18T02:55:45;16.87;;;5.47;;
51961;SDS011;37986;51.238;17.128;2022-12-18T03:03:54;6.03;;;5.40;;
51961;SDS011;37986;51.238;17.128;2022-12-18T03:06:32;6.57;;;5.93;;
51961;SDS011;37986;51.238;17.128;2022-12-18T03:09:40;7.30;;;6.03;;
51961;SDS011;37986;51.238;17.128;2022-12-18T03:11:52;6.97;;;3.53;;
51961;SDS011;37986;51.238;17.128;2022-12-18T03:14:40;9.90;;;6.22;;
51961;SDS011;37986;51.238;17.128;2022-12-18T03:17:09;3.90;;;3.13;;
51961;SDS011;37986;51.238;17.128;2022-12-18T03:19:36;6.43;;;4.53;;
51961;SDS011;37986;51.238;17.128;2022-12-18T03:22:04;4.47;;;4.07;;
51961;SDS011;37986;51.238;17.128;2022-12-18T03:24:33;2.50;;;2.40;;
51961;SDS011;37986;51.238;17.128;2022-12-18T03:27:03;16.47;;;7.63;;
51961;SDS011;37986;51.238;17.128;2022-12-18T03:29:34;6.77;;;6.07;;
51961;SDS011;37986;51.238;17.128;2022-12-18T03:32:10;4.03;;;2.70;;
51961;SDS011;37986;51.238;17.128;2022-12-18T03:34:40;5.67;;;5.10;;
51961;SDS011;37986;51.238;17.128;2022-12-18T03:37:08;9.17;;;5.20;;
51961;SDS011;37986;51.238;17.128;2022-12-18T03:39:34;4.07;;;3.83;;
51961;SDS011;37986;51.238;17.128;2022-12-18T03:45:08;5.73;;;5.23;;
51961;SDS011;37986;51.238;17.128;2022-12-18T03:47:43;3.77;;;2.80;;
51961;SDS011;37986;51.238;17.128;2022-12-18T03:50:16;7.67;;;3.33;;
51961;SDS011;37986;51.238;17.128;2022-12-18T03:52:59;2.13;;;2.03;;
51961;SDS011;37986;51.238;17.128;2022-12-18T03:55:32;4.07;;;3.63;;
51961;SDS011;37986;51.238;17.128;2022-12-18T03:57:59;11.33;;;5.40;;
51961;SDS011;37986;51.238;17.128;2022-12-18T04:00:26;10.73;;;6.73;;
51961;SDS011;37986;51.238;17.128;2022-12-18T04:02:54;3.43;;;3.23;;
51961;SDS011;37986;51.238;17.128;2022-12-18T04:05:22;5.10;;;3.43;;
51961;SDS011;37986;51.238;17.128;2022-12-18T04:07:49;8.40;;;3.27;;
51961;SDS011;37986;51.238;17.128;2022-12-18T04:10:17;4.13;;;3.93;;
51961;SDS011;37986;51.238;17.128;2022-12-18T04:12:44;24.43;;;4.70;;
51961;SDS011;37986;51.238;17.128;2022-12-18T04:15:10;4.63;;;4.10;;
51961;SDS011;37986;51.238;17.128;2022-12-18T04:17:37;24.53;;;5.73;;
51961;SDS011;37986;51.238;17.128;2022-12-18T04:20:04;5.87;;;5.30;;
51961;SDS011;37986;51.238;17.128;2022-12-18T04:22:31;9.10;;;4.57;;
51961;SDS011;37986;51.238;17.128;2022-12-18T04:24:56;5.97;;;4.33;;
51961;SDS011;37986;51.238;17.128;2022-12-18T04:27:22;5.97;;;3.47;;
51961;SDS011;37986;51.238;17.128;2022-12-18T04:29:48;4.63;;;3.07;;
51961;SDS011;37986;51.238;17.128;2022-12-18T04:32:14;4.77;;;4.47;;
51961;SDS011;37986;51.238;17.128;2022-12-18T04:34:40;3.67;;;3.43;;
51961;SDS011;37986;51.238;17.128;2022-12-18T04:37:05;3.10;;;2.97;;
51961;SDS011;37986;51.238;17.128;2022-12-18T04:39:31;4.47;;;3.77;;
51961;SDS011;37986;51.238;17.128;2022-12-18T04:41:57;2.43;;;2.23;;
51961;SDS011;37986;51.238;17.128;2022-12-18T04:44:23;7.13;;;4.80;;
51961;SDS011;37986;51.238;17.128;2022-12-18T04:46:48;9.87;;;6.50;;
51961;SDS011;37986;51.238;17.128;2022-12-18T04:49:14;4.77;;;4.30;;
51961;SDS011;37986;51.238;17.128;2022-12-18T04:51:40;5.57;;;5.00;;
51961;SDS011;37986;51.238;17.128;2022-12-18T04:54:06;7.27;;;4.90;;
51961;SDS011;37986;51.238;17.128;2022-12-18T04:56:32;9.60;;;4.80;;
51961;SDS011;37986;51.238;17.128;2022-12-18T04:58:57;8.63;;;5.80;;
51961;SDS011;37986;51.238;17.128;2022-12-18T05:01:23;2.77;;;2.57;;
51961;SDS011;37986;51.238;17.128;2022-12-18T05:03:50;4.50;;;2.00;;
51961;SDS011;37986;51.238;17.128;2022-12-18T05:06:17;5.37;;;4.27;;
51961;SDS011;37986;51.238;17.128;2022-12-18T05:08:43;9.17;;;5.20;;
51961;SDS011;37986;51.238;17.128;2022-12-18T05:11:10;16.23;;;7.07;;
51961;SDS011;37986;51.238;17.128;2022-12-18T05:13:42;2.53;;;2.33;;
51961;SDS011;37986;51.238;17.128;2022-12-18T05:16:09;4.97;;;2.10;;
51961;SDS011;37986;51.238;17.128;2022-12-18T05:18:36;4.77;;;4.40;;
51961;SDS011;37986;51.238;17.128;2022-12-18T05:21:02;7.33;;;2.50;;
51961;SDS011;37986;51.238;17.128;2022-12-18T05:23:28;3.07;;;2.30;;
51961;SDS011;37986;51.238;17.128;2022-12-18T05:25:55;12.47;;;3.37;;
51961;SDS011;37986;51.238;17.128;2022-12-18T05:28:27;6.50;;;5.75;;
51961;SDS011;37986;51.238;17.128;2022-12-18T05:30:56;4.03;;;3.70;;
51961;SDS011;37986;51.238;17.128;2022-12-18T05:33:25;7.67;;;3.13;;
51961;SDS011;37986;51.238;17.128;2022-12-18T05:35:55;3.63;;;3.43;;
51961;SDS011;37986;51.238;17.128;2022-12-18T05:38:24;11.00;;;4.13;;
51961;SDS011;37986;51.238;17.128;2022-12-18T05:40:52;6.83;;;4.07;;
51961;SDS011;37986;51.238;17.128;2022-12-18T05:43:18;3.20;;;3.00;;
51961;SDS011;37986;51.238;17.128;2022-12-18T05:45:47;7.00;;;6.03;;
51961;SDS011;37986;51.238;17.128;2022-12-18T05:48:13;5.37;;;3.17;;
51961;SDS011;37986;51.238;17.128;2022-12-18T05:50:41;4.93;;;4.13;;
51961;SDS011;37986;51.238;17.128;2022-12-18T05:53:10;4.80;;;4.10;;
51961;SDS011;37986;51.238;17.128;2022-12-18T05:55:38;8.30;;;5.10;;
51961;SDS011;37986;51.238;17.128;2022-12-18T05:58:06;5.53;;;4.47;;
51961;SDS011;37986;51.238;17.128;2022-12-18T06:00:34;2.37;;;1.80;;
51961;SDS011;37986;51.238;17.128;2022-12-18T06:03:04;5.90;;;5.27;;
51961;SDS011;37986;51.238;17.128;2022-12-18T06:05:43;10.70;;;4.33;;
51961;SDS011;37986;51.238;17.128;2022-12-18T06:08:08;4.80;;;4.50;;
51961;SDS011;37986;51.238;17.128;2022-12-18T06:10:34;5.67;;;5.17;;
51961;SDS011;37986;51.238;17.128;2022-12-18T06:13:00;6.03;;;3.83;;
51961;SDS011;37986;51.238;17.128;2022-12-18T06:15:26;10.50;;;5.10;;
51961;SDS011;37986;51.238;17.128;2022-12-18T06:17:53;4.27;;;4.07;;
51961;SDS011;37986;51.238;17.128;2022-12-18T06:20:18;21.83;;;5.40;;
51961;SDS011;37986;51.238;17.128;2022-12-18T06:22:45;9.10;;;5.53;;
51961;SDS011;37986;51.238;17.128;2022-12-18T06:25:11;2.43;;;1.97;;
51961;SDS011;37986;51.238;17.128;2022-12-18T06:27:37;5.07;;;4.67;;
51961;SDS011;37986;51.238;17.128;2022-12-18T06:30:03;3.00;;;2.77;;
51961;SDS011;37986;51.238;17.128;2022-12-18T06:32:30;3.03;;;2.80;;
51961;SDS011;37986;51.238;17.128;2022-12-18T06:34:56;4.70;;;3.27;;
51961;SDS011;37986;51.238;17.128;2022-12-18T06:37:22;4.30;;;2.90;;
51961;SDS011;37986;51.238;17.128;2022-12-18T06:39:52;10.87;;;3.50;;
51961;SDS011;37986;51.238;17.128;2022-12-18T06:42:18;5.87;;;3.93;;
51961;SDS011;37986;51.238;17.128;2022-12-18T06:44:44;3.20;;;2.90;;
51961;SDS011;37986;51.238;17.128;2022-12-18T06:47:10;5.30;;;4.73;;
51961;SDS011;37986;51.238;17.128;2022-12-18T06:49:36;4.30;;;3.90;;
51961;SDS011;37986;51.238;17.128;2022-12-18T06:52:02;3.37;;;2.97;;
51961;SDS011;37986;51.238;17.128;2022-12-18T06:54:28;3.43;;;3.23;;
51961;SDS011;37986;51.238;17.128;2022-12-18T06:56:53;4.57;;;4.27;;
51961;SDS011;37986;51.238;17.128;2022-12-18T06:59:19;4.57;;;4.23;;
51961;SDS011;37986;51.238;17.128;2022-12-18T07:01:45;7.67;;;5.23;;
51961;SDS011;37986;51.238;17.128;2022-12-18T07:04:11;4.30;;;4.00;;
51961;SDS011;37986;51.238;17.128;2022-12-18T07:06:37;4.13;;;2.13;;
51961;SDS011;37986;51.238;17.128;2022-12-18T07:09:03;4.23;;;3.93;;
51961;SDS011;37986;51.238;17.128;2022-12-18T07:11:29;1.50;;;1.50;;
51961;SDS011;37986;51.238;17.128;2022-12-18T07:13:54;5.90;;;4.47;;
51961;SDS011;37986;51.238;17.128;2022-12-18T07:16:20;6.80;;;5.50;;
51961;SDS011;37986;51.238;17.128;2022-12-18T07:18:46;4.50;;;4.03;;
51961;SDS011;37986;51.238;17.128;2022-12-18T07:21:14;4.43;;;4.00;;
51961;SDS011;37986;51.238;17.128;2022-12-18T07:23:42;3.83;;;2.47;;
51961;SDS011;37986;51.238;17.128;2022-12-18T07:26:11;8.57;;;3.63;;
51961;SDS011;37986;51.238;17.128;2022-12-18T07:28:39;5.87;;;4.20;;
51961;SDS011;37986;51.238;17.128;2022-12-18T07:31:06;4.73;;;4.37;;
51961;SDS011;37986;51.238;17.128;2022-12-18T07:33:36;2.90;;;2.73;;
51961;SDS011;37986;51.238;17.128;2022-12-18T07:36:03;3.27;;;3.07;;
51961;SDS011;37986;51.238;17.128;2022-12-18T07:38:30;14.60;;;3.70;;
51961;SDS011;37986;51.238;17.128;2022-12-18T07:41:01;11.97;;;4.73;;
51961;SDS011;37986;51.238;17.128;2022-12-18T07:43:36;6.63;;;4.00;;
51961;SDS011;37986;51.238;17.128;2022-12-18T07:46:03;6.73;;;5.83;;
51961;SDS011;37986;51.238;17.128;2022-12-18T07:48:29;4.20;;;3.93;;
51961;SDS011;37986;51.238;17.128;2022-12-18T07:50:59;27.80;;;7.40;;
51961;SDS011;37986;51.238;17.128;2022-12-18T07:53:27;12.63;;;4.43;;
51961;SDS011;37986;51.238;17.128;2022-12-18T07:55:56;16.20;;;8.67;;
51961;SDS011;37986;51.238;17.128;2022-12-18T07:58:23;18.93;;;10.53;;
51961;SDS011;37986;51.238;17.128;2022-12-18T08:00:49;8.80;;;7.47;;
51961;SDS011;37986;51.238;17.128;2022-12-18T08:03:15;7.20;;;5.23;;
51961;SDS011;37986;51.238;17.128;2022-12-18T08:05:41;20.27;;;6.83;;
51961;SDS011;37986;51.238;17.128;2022-12-18T08:08:07;11.60;;;6.37;;
51961;SDS011;37986;51.238;17.128;2022-12-18T08:10:32;4.67;;;4.27;;
51961;SDS011;37986;51.238;17.128;2022-12-18T08:12:58;5.83;;;5.13;;
51961;SDS011;37986;51.238;17.128;2022-12-18T08:15:24;14.77;;;6.90;;
51961;SDS011;37986;51.238;17.128;2022-12-18T08:17:50;12.00;;;9.43;;
51961;SDS011;37986;51.238;17.128;2022-12-18T08:20:15;20.67;;;9.13;;
51961;SDS011;37986;51.238;17.128;2022-12-18T08:22:43;19.63;;;9.23;;
51961;SDS011;37986;51.238;17.128;2022-12-18T08:25:09;10.63;;;6.30;;
51961;SDS011;37986;51.238;17.128;2022-12-18T08:27:36;12.20;;;8.77;;
51961;SDS011;37986;51.238;17.128;2022-12-18T08:30:07;13.23;;;7.00;;
51961;SDS011;37986;51.238;17.128;2022-12-18T08:32:31;21.65;;;11.25;;
51961;SDS011;37986;51.238;17.128;2022-12-18T08:34:58;14.63;;;5.77;;
51961;SDS011;37986;51.238;17.128;2022-12-18T08:37:24;26.60;;;8.43;;
51961;SDS011;37986;51.238;17.128;2022-12-18T08:39:50;4.10;;;3.60;;
51961;SDS011;37986;51.238;17.128;2022-12-18T08:42:16;11.20;;;6.80;;
51961;SDS011;37986;51.238;17.128;2022-12-18T08:45:01;3.98;;;3.35;;
51961;SDS011;37986;51.238;17.128;2022-12-18T08:47:28;15.23;;;10.13;;
51961;SDS011;37986;51.238;17.128;2022-12-18T08:49:54;13.03;;;9.47;;
51961;SDS011;37986;51.238;17.128;2022-12-18T08:52:20;7.73;;;5.83;;
51961;SDS011;37986;51.238;17.128;2022-12-18T08:54:45;8.90;;;6.87;;
51961;SDS011;37986;51.238;17.128;2022-12-18T08:57:11;14.50;;;7.07;;
51961;SDS011;37986;51.238;17.128;2022-12-18T08:59:37;24.40;;;10.90;;
51961;SDS011;37986;51.238;17.128;2022-12-18T09:02:03;27.73;;;9.43;;
51961;SDS011;37986;51.238;17.128;2022-12-18T09:04:28;11.20;;;7.93;;
51961;SDS011;37986;51.238;17.128;2022-12-18T09:06:54;32.63;;;12.57;;
51961;SDS011;37986;51.238;17.128;2022-12-18T09:09:20;10.57;;;7.43;;
51961;SDS011;37986;51.238;17.128;2022-12-18T09:11:46;24.50;;;7.10;;
51961;SDS011;37986;51.238;17.128;2022-12-18T09:14:12;11.80;;;6.70;;
51961;SDS011;37986;51.238;17.128;2022-12-18T09:16:38;23.00;;;9.57;;
51961;SDS011;37986;51.238;17.128;2022-12-18T09:19:04;18.07;;;5.83;;
51961;SDS011;37986;51.238;17.128;2022-12-18T09:21:31;12.77;;;9.20;;
51961;SDS011;37986;51.238;17.128;2022-12-18T09:23:59;29.45;;;9.50;;
51961;SDS011;37986;51.238;17.128;2022-12-18T09:26:26;3.47;;;3.30;;
51961;SDS011;37986;51.238;17.128;2022-12-18T09:28:52;12.90;;;4.15;;
51961;SDS011;37986;51.238;17.128;2022-12-18T09:31:19;10.38;;;5.53;;
51961;SDS011;37986;51.238;17.128;2022-12-18T09:33:47;6.77;;;6.10;;
51961;SDS011;37986;51.238;17.128;2022-12-18T09:36:13;17.77;;;7.23;;
51961;SDS011;37986;51.238;17.128;2022-12-18T09:38:41;11.70;;;5.47;;
51961;SDS011;37986;51.238;17.128;2022-12-18T09:49:52;20.68;;;9.80;;
51961;SDS011;37986;51.238;17.128;2022-12-18T09:52:26;8.48;;;3.12;;
51961;SDS011;37986;51.238;17.128;2022-12-18T09:57:39;13.85;;;6.42;;
51961;SDS011;37986;51.238;17.128;2022-12-18T10:02:46;13.28;;;6.35;;
51961;SDS011;37986;51.238;17.128;2022-12-18T10:05:14;16.45;;;8.35;;
51961;SDS011;37986;51.238;17.128;2022-12-18T10:08:07;20.57;;;8.38;;
51961;SDS011;37986;51.238;17.128;2022-12-18T10:10:50;21.82;;;9.73;;
51961;SDS011;37986;51.238;17.128;2022-12-18T10:13:32;16.75;;;8.08;;
51961;SDS011;37986;51.238;17.128;2022-12-18T10:16:19;21.12;;;8.20;;
51961;SDS011;37986;51.238;17.128;2022-12-18T10:24:33;11.53;;;4.17;;
51961;SDS011;37986;51.238;17.128;2022-12-18T10:27:15;22.45;;;10.82;;
51961;SDS011;37986;51.238;17.128;2022-12-18T10:29:44;14.25;;;7.00;;
51961;SDS011;37986;51.238;17.128;2022-12-18T10:32:21;11.70;;;4.50;;
51961;SDS011;37986;51.238;17.128;2022-12-18T10:34:54;12.80;;;7.85;;
51961;SDS011;37986;51.238;17.128;2022-12-18T10:37:23;24.32;;;11.97;;
51961;SDS011;37986;51.238;17.128;2022-12-18T10:42:41;14.90;;;8.88;;
51961;SDS011;37986;51.238;17.128;2022-12-18T10:45:16;4.87;;;4.35;;
51961;SDS011;37986;51.238;17.128;2022-12-18T10:47:46;21.62;;;9.65;;
51961;SDS011;37986;51.238;17.128;2022-12-18T10:50:23;25.12;;;10.15;;
51961;SDS011;37986;51.238;17.128;2022-12-18T10:52:59;13.95;;;4.90;;
51961;SDS011;37986;51.238;17.128;2022-12-18T10:55:35;20.85;;;9.23;;
51961;SDS011;37986;51.238;17.128;2022-12-18T11:01:44;9.93;;;5.65;;
51961;SDS011;37986;51.238;17.128;2022-12-18T11:06:12;8.05;;;5.25;;
51961;SDS011;37986;51.238;17.128;2022-12-18T11:08:42;10.23;;;5.90;;
51961;SDS011;37986;51.238;17.128;2022-12-18T11:11:21;11.68;;;8.48;;
51961;SDS011;37986;51.238;17.128;2022-12-18T11:16:46;17.67;;;6.42;;
51961;SDS011;37986;51.238;17.128;2022-12-18T11:19:35;4.90;;;4.28;;
51961;SDS011;37986;51.238;17.128;2022-12-18T11:22:16;4.45;;;3.95;;
51961;SDS011;37986;51.238;17.128;2022-12-18T11:24:55;10.43;;;3.25;;
51961;SDS011;37986;51.238;17.128;2022-12-18T11:27:20;3.25;;;2.90;;
51961;SDS011;37986;51.238;17.128;2022-12-18T11:29:46;9.78;;;4.42;;
51961;SDS011;37986;51.238;17.128;2022-12-18T11:35:18;9.05;;;5.75;;
51961;SDS011;37986;51.238;17.128;2022-12-18T11:38:27;6.80;;;6.12;;
51961;SDS011;37986;51.238;17.128;2022-12-18T11:40:58;11.40;;;6.30;;
51961;SDS011;37986;51.238;17.128;2022-12-18T11:51:58;8.78;;;6.17;;
51961;SDS011;37986;51.238;17.128;2022-12-18T11:54:26;8.90;;;5.12;;
51961;SDS011;37986;51.238;17.128;2022-12-18T11:57:07;7.80;;;6.07;;
51961;SDS011;37986;51.238;17.128;2022-12-18T12:05:45;3.42;;;3.15;;
51961;SDS011;37986;51.238;17.128;2022-12-18T12:08:22;15.83;;;9.15;;
51961;SDS011;37986;51.238;17.128;2022-12-18T12:11:24;7.97;;;4.67;;
51961;SDS011;37986;51.238;17.128;2022-12-18T12:20:02;12.07;;;5.78;;
51961;SDS011;37986;51.238;17.128;2022-12-18T12:39:47;37.30;;;10.90;;
51961;SDS011;37986;51.238;17.128;2022-12-18T12:42:18;14.97;;;7.97;;
51961;SDS011;37986;51.238;17.128;2022-12-18T12:45:28;20.43;;;11.75;;
51961;SDS011;37986;51.238;17.128;2022-12-18T12:49:09;15.48;;;8.23;;
51961;SDS011;37986;51.238;17.128;2022-12-18T12:51:10;8.30;;;5.60;;
51961;SDS011;37986;51.238;17.128;2022-12-18T12:53:42;14.87;;;10.38;;
51961;SDS011;37986;51.238;17.128;2022-12-18T12:56:10;36.08;;;13.95;;
51961;SDS011;37986;51.238;17.128;2022-12-18T13:02:06;25.65;;;9.75;;
51961;SDS011;37986;51.238;17.128;2022-12-18T13:04:52;16.85;;;9.10;;
51961;SDS011;37986;51.238;17.128;2022-12-18T13:07:46;25.48;;;10.40;;
51961;SDS011;37986;51.238;17.128;2022-12-18T13:10:24;15.35;;;9.28;;
51961;SDS011;37986;51.238;17.128;2022-12-18T13:20:47;13.25;;;9.18;;
51961;SDS011;37986;51.238;17.128;2022-12-18T13:25:55;60.50;;;22.23;;
51961;SDS011;37986;51.238;17.128;2022-12-18T13:36:50;35.17;;;12.75;;
51961;SDS011;37986;51.238;17.128;2022-12-18T13:41:54;16.25;;;8.10;;
51961;SDS011;37986;51.238;17.128;2022-12-18T13:49:58;7.03;;;5.43;;
51961;SDS011;37986;51.238;17.128;2022-12-18T13:52:28;13.58;;;7.17;;
51961;SDS011;37986;51.238;17.128;2022-12-18T13:55:01;16.70;;;10.00;;
51961;SDS011;37986;51.238;17.128;2022-12-18T13:57:32;10.47;;;8.47;;
51961;SDS011;37986;51.238;17.128;2022-12-18T14:02:54;10.93;;;5.57;;
51961;SDS011;37986;51.238;17.128;2022-12-18T14:05:26;24.97;;;9.97;;
51961;SDS011;37986;51.238;17.128;2022-12-18T14:07:55;17.17;;;8.40;;
51961;SDS011;37986;51.238;17.128;2022-12-18T14:10:32;8.77;;;2.83;;
51961;SDS011;37986;51.238;17.128;2022-12-18T14:12:59;18.43;;;7.93;;
51961;SDS011;37986;51.238;17.128;2022-12-18T14:15:32;15.63;;;7.83;;
51961;SDS011;37986;51.238;17.128;2022-12-18T14:18:24;22.00;;;7.80;;
51961;SDS011;37986;51.238;17.128;2022-12-18T14:20:55;12.60;;;5.17;;
51961;SDS011;37986;51.238;17.128;2022-12-18T14:23:36;10.13;;;6.57;;
51961;SDS011;37986;51.238;17.128;2022-12-18T14:28:55;10.27;;;4.70;;
51961;SDS011;37986;51.238;17.128;2022-12-18T14:31:24;16.63;;;7.43;;
51961;SDS011;37986;51.238;17.128;2022-12-18T14:33:51;21.47;;;9.77;;
51961;SDS011;37986;51.238;17.128;2022-12-18T14:36:19;13.23;;;6.10;;
51961;SDS011;37986;51.238;17.128;2022-12-18T14:38:48;10.03;;;6.53;;
51961;SDS011;37986;51.238;17.128;2022-12-18T14:41:17;25.17;;;10.00;;
51961;SDS011;37986;51.238;17.128;2022-12-18T14:43:45;11.83;;;7.53;;
51961;SDS011;37986;51.238;17.128;2022-12-18T14:49:02;21.13;;;8.27;;
51961;SDS011;37986;51.238;17.128;2022-12-18T14:51:32;18.57;;;11.43;;
51961;SDS011;37986;51.238;17.128;2022-12-18T14:54:00;14.90;;;9.27;;
51961;SDS011;37986;51.238;17.128;2022-12-18T14:56:34;25.30;;;11.47;;
51961;SDS011;37986;51.238;17.128;2022-12-18T14:59:00;33.57;;;14.40;;
51961;SDS011;37986;51.238;17.128;2022-12-18T15:04:26;17.83;;;9.47;;
51961;SDS011;37986;51.238;17.128;2022-12-18T15:07:09;20.63;;;9.57;;
51961;SDS011;37986;51.238;17.128;2022-12-18T15:09:42;20.77;;;10.60;;
51961;SDS011;37986;51.238;17.128;2022-12-18T15:15:01;49.03;;;15.57;;
51961;SDS011;37986;51.238;17.128;2022-12-18T15:17:28;33.17;;;12.97;;
51961;SDS011;37986;51.238;17.128;2022-12-18T15:20:00;12.37;;;6.77;;
51961;SDS011;37986;51.238;17.128;2022-12-18T15:22:32;29.43;;;12.23;;
51961;SDS011;37986;51.238;17.128;2022-12-18T15:25:01;31.53;;;11.83;;
51961;SDS011;37986;51.238;17.128;2022-12-18T15:27:32;20.73;;;11.03;;
51961;SDS011;37986;51.238;17.128;2022-12-18T15:32:43;31.93;;;12.40;;
51961;SDS011;37986;51.238;17.128;2022-12-18T15:37:47;43.00;;;17.13;;
51961;SDS011;37986;51.238;17.128;2022-12-18T15:40:21;26.13;;;11.53;;
51961;SDS011;37986;51.238;17.128;2022-12-18T15:42:47;14.53;;;8.37;;
51961;SDS011;37986;51.238;17.128;2022-12-18T15:45:32;8.50;;;7.60;;
51961;SDS011;37986;51.238;17.128;2022-12-18T15:47:58;19.00;;;11.00;;
51961;SDS011;37986;51.238;17.128;2022-12-18T15:50:24;27.70;;;13.70;;
51961;SDS011;37986;51.238;17.128;2022-12-18T15:52:51;23.23;;;12.90;;
51961;SDS011;37986;51.238;17.128;2022-12-18T15:55:20;31.67;;;13.27;;
51961;SDS011;37986;51.238;17.128;2022-12-18T15:58:07;32.40;;;15.30;;
51961;SDS011;37986;51.238;17.128;2022-12-18T16:00:36;31.43;;;15.57;;
51961;SDS011;37986;51.238;17.128;2022-12-18T16:03:04;27.20;;;13.13;;
51961;SDS011;37986;51.238;17.128;2022-12-18T16:05:31;22.70;;;11.63;;
51961;SDS011;37986;51.238;17.128;2022-12-18T16:07:57;24.53;;;13.10;;
51961;SDS011;37986;51.238;17.128;2022-12-18T16:10:24;19.30;;;9.47;;
51961;SDS011;37986;51.238;17.128;2022-12-18T16:12:51;35.80;;;17.17;;
51961;SDS011;37986;51.238;17.128;2022-12-18T16:15:17;29.10;;;10.80;;
51961;SDS011;37986;51.238;17.128;2022-12-18T16:17:43;19.30;;;9.23;;
51961;SDS011;37986;51.238;17.128;2022-12-18T16:20:18;13.10;;;7.70;;
51961;SDS011;37986;51.238;17.128;2022-12-18T16:22:43;21.23;;;10.37;;
51961;SDS011;37986;51.238;17.128;2022-12-18T16:25:21;29.17;;;10.20;;
51961;SDS011;37986;51.238;17.128;2022-12-18T16:27:50;23.27;;;8.47;;
51961;SDS011;37986;51.238;17.128;2022-12-18T16:30:18;43.97;;;14.33;;
51961;SDS011;37986;51.238;17.128;2022-12-18T16:32:47;15.90;;;8.43;;
51961;SDS011;37986;51.238;17.128;2022-12-18T16:35:14;15.37;;;8.23;;
51961;SDS011;37986;51.238;17.128;2022-12-18T16:37:41;23.30;;;9.43;;
51961;SDS011;37986;51.238;17.128;2022-12-18T16:40:09;37.50;;;15.03;;
51961;SDS011;37986;51.238;17.128;2022-12-18T16:42:39;24.67;;;9.27;;
51961;SDS011;37986;51.238;17.128;2022-12-18T16:45:08;44.87;;;15.17;;
51961;SDS011;37986;51.238;17.128;2022-12-18T16:47:40;25.43;;;11.27;;
51961;SDS011;37986;51.238;17.128;2022-12-18T16:50:06;20.47;;;10.80;;
51961;SDS011;37986;51.238;17.128;2022-12-18T16:52:33;46.57;;;15.03;;
51961;SDS011;37986;51.238;17.128;2022-12-18T16:55:00;42.50;;;16.57;;
51961;SDS011;37986;51.238;17.128;2022-12-18T16:57:26;46.27;;;14.00;;
51961;SDS011;37986;51.238;17.128;2022-12-18T16:59:52;41.47;;;16.93;;
51961;SDS011;37986;51.238;17.128;2022-12-18T17:02:26;30.10;;;12.80;;
51961;SDS011;37986;51.238;17.128;2022-12-18T17:04:52;10.67;;;6.03;;
51961;SDS011;37986;51.238;17.128;2022-12-18T17:07:22;19.37;;;9.23;;
51961;SDS011;37986;51.238;17.128;2022-12-18T17:09:49;11.67;;;7.03;;
51961;SDS011;37986;51.238;17.128;2022-12-18T17:12:17;21.03;;;8.83;;
51961;SDS011;37986;51.238;17.128;2022-12-18T17:14:44;21.53;;;7.90;;
51961;SDS011;37986;51.238;17.128;2022-12-18T17:17:10;19.00;;;8.67;;